createdAt,value
2023-04-16T00:01:17.060Z,102220.53
2023-04-16T00:03:43.695Z,102234.38
2023-04-16T00:06:12.498Z,102232.66
2023-04-16T00:08:38.924Z,102229.13
2023-04-16T00:11:05.659Z,102225.69
2023-04-16T00:13:32.159Z,102229.06
2023-04-16T00:15:59.147Z,102230.00
2023-04-16T00:18:26.109Z,102229.16
2023-04-16T00:20:53.503Z,102232.56
2023-04-16T00:23:20.019Z,102239.44
2023-04-16T00:25:46.546Z,102231.66
2023-04-16T00:28:12.991Z,102230.78
2023-04-16T00:30:39.940Z,102234.25
2023-04-16T00:33:06.647Z,102234.25
2023-04-16T00:35:33.077Z,102228.22
2023-04-16T00:37:59.520Z,102234.25
2023-04-16T00:40:29.572Z,102228.19
2023-04-16T00:42:55.980Z,102229.06
2023-04-16T00:45:22.689Z,102230.81
2023-04-16T00:47:49.693Z,102232.56
2023-04-16T00:50:17.519Z,102229.97
2023-04-16T00:52:43.915Z,102234.31
2023-04-16T00:55:13.317Z,102231.72
2023-04-16T00:57:39.790Z,102232.69
2023-04-16T01:00:06.912Z,102226.56
2023-04-16T01:02:34.149Z,102235.25
2023-04-16T01:05:01.968Z,102230.09
2023-04-16T01:07:28.464Z,102228.41
2023-04-16T01:09:55.135Z,102228.41
2023-04-16T01:12:21.735Z,102236.13
2023-04-16T01:14:48.491Z,102234.47
2023-04-16T01:17:15.044Z,102243.97
2023-04-16T01:19:41.933Z,102232.66
2023-04-16T01:22:08.411Z,102230.06
2023-04-16T01:24:35.180Z,102226.53
2023-04-16T01:27:01.618Z,102230.81
2023-04-16T01:29:28.082Z,102229.94
2023-04-16T01:31:54.522Z,102237.78
2023-04-16T01:34:20.993Z,102232.59
2023-04-16T01:36:47.358Z,102236.06
2023-04-16T01:39:15.733Z,102237.75
2023-04-16T01:41:42.531Z,102239.44
2023-04-16T01:44:09.156Z,102241.19
2023-04-16T01:46:35.827Z,102239.44
2023-04-16T01:49:02.859Z,102242.09
2023-04-16T01:51:29.301Z,102241.25
2023-04-16T01:53:56.165Z,102240.44
2023-04-16T01:56:22.517Z,102237.91
2023-04-16T01:58:49.026Z,102245.66
2023-04-16T02:01:16.080Z,102242.97
2023-04-16T02:03:42.741Z,102234.25
2023-04-16T02:06:09.440Z,102242.94
2023-04-16T02:08:36.113Z,102245.53
2023-04-16T02:11:02.619Z,102242.94
2023-04-16T02:13:29.028Z,102249.91
2023-04-16T02:15:55.463Z,102245.56
2023-04-16T02:18:21.875Z,102239.44
2023-04-16T02:20:49.746Z,102238.50
2023-04-16T02:23:16.334Z,102241.06
2023-04-16T02:25:44.132Z,102239.25
2023-04-16T02:28:16.332Z,102237.44
2023-04-16T02:30:43.434Z,102234.00
2023-04-16T02:33:11.789Z,102236.66
2023-04-16T02:35:39.172Z,102240.13
2023-04-16T02:38:05.998Z,102236.66
2023-04-16T02:40:32.529Z,102234.97
2023-04-16T02:42:59.023Z,102241.94
2023-04-16T02:45:25.556Z,102236.69
2023-04-16T02:47:52.042Z,102241.91
2023-04-16T02:50:18.791Z,102242.75
2023-04-16T02:52:45.335Z,102232.44
2023-04-16T02:55:12.057Z,102235.88
2023-04-16T02:57:38.514Z,102243.69
2023-04-16T03:00:05.501Z,102235.03
2023-04-16T03:02:31.993Z,102237.63
2023-04-16T03:04:58.566Z,102243.78
2023-04-16T03:07:25.134Z,102240.25
2023-04-16T03:09:51.550Z,102243.69
2023-04-16T03:12:17.927Z,102248.84
2023-04-16T03:14:44.376Z,102254.03
2023-04-16T03:17:10.780Z,102249.78
2023-04-16T03:19:37.236Z,102255.78
2023-04-16T03:22:03.714Z,102255.72
2023-04-16T03:24:30.112Z,102254.88
2023-04-16T03:26:57.933Z,102260.06
2023-04-16T03:29:24.742Z,102264.44
2023-04-16T03:31:51.439Z,102260.09
2023-04-16T03:34:17.798Z,102264.44
2023-04-16T03:36:44.213Z,102265.28
2023-04-16T03:39:10.858Z,102260.03
2023-04-16T03:41:37.441Z,102274.72
2023-04-16T03:44:03.815Z,102260.06
2023-04-16T03:46:30.427Z,102265.25
2023-04-16T03:48:56.901Z,102266.09
2023-04-16T03:51:23.429Z,102271.28
2023-04-16T03:53:49.874Z,102267.84
2023-04-16T03:56:16.291Z,102267.75
2023-04-16T03:58:42.684Z,102268.69
2023-04-16T04:01:09.053Z,102262.66
2023-04-16T04:03:35.539Z,102266.94
2023-04-16T04:06:07.335Z,102266.06
2023-04-16T04:08:33.789Z,102273.00
2023-04-16T04:11:00.180Z,102261.75
2023-04-16T04:13:26.754Z,102279.06
2023-04-16T04:15:53.137Z,102271.28
2023-04-16T04:18:19.514Z,102274.81
2023-04-16T04:20:45.874Z,102278.28
2023-04-16T04:23:12.269Z,102277.31
2023-04-16T04:25:38.709Z,102277.31
2023-04-16T04:28:05.142Z,102281.63
2023-04-16T04:30:31.634Z,102279.06
2023-04-16T04:32:58.270Z,102288.59
2023-04-16T04:35:24.693Z,102282.59
2023-04-16T04:37:51.062Z,102285.22
2023-04-16T04:40:17.493Z,102289.59
2023-04-16T04:42:43.981Z,102286.97
2023-04-16T04:45:11.414Z,102296.56
2023-04-16T04:47:37.885Z,102294.84
2023-04-16T04:50:04.753Z,102298.28
2023-04-16T04:52:31.251Z,102307.81
2023-04-16T04:54:57.713Z,102306.94
2023-04-16T04:57:24.110Z,102295.72
2023-04-16T04:59:50.805Z,102306.91
2023-04-16T05:02:17.319Z,102309.41
2023-04-16T05:04:43.723Z,102302.50
2023-04-16T05:07:10.156Z,102301.59
2023-04-16T05:09:36.513Z,102303.41
2023-04-16T05:12:03.942Z,102306.91
2023-04-16T05:14:30.386Z,102307.75
2023-04-16T05:16:56.830Z,102308.66
2023-04-16T05:19:23.285Z,102307.72
2023-04-16T05:21:49.721Z,102310.19
2023-04-16T05:24:16.121Z,102314.44
2023-04-16T05:26:42.538Z,102309.25
2023-04-16T05:29:09.121Z,102312.69
2023-04-16T05:31:35.923Z,102301.50
2023-04-16T05:34:02.364Z,102307.66
2023-04-16T05:36:28.840Z,102315.41
2023-04-16T05:38:55.236Z,102314.53
2023-04-16T05:41:21.670Z,102313.75
2023-04-16T05:43:48.043Z,102311.16
2023-04-16T05:46:14.465Z,102318.94
2023-04-16T05:48:40.858Z,102320.63
2023-04-16T05:51:07.366Z,102323.22
2023-04-16T05:53:33.789Z,102326.66
2023-04-16T05:56:00.185Z,102328.34
2023-04-16T05:58:26.548Z,102329.13
2023-04-16T06:00:53.029Z,102341.16
2023-04-16T06:03:19.496Z,102328.19
2023-04-16T06:05:46.063Z,102334.28
2023-04-16T06:08:12.494Z,102343.72
2023-04-16T06:10:39.168Z,102331.63
2023-04-16T06:13:05.708Z,102340.25
2023-04-16T06:15:32.131Z,102343.78
2023-04-16T06:18:00.715Z,102339.47
2023-04-16T06:20:27.391Z,102340.31
2023-04-16T06:22:53.817Z,102338.59
2023-04-16T06:25:20.259Z,102352.44
2023-04-16T06:27:46.628Z,102354.94
2023-04-16T06:30:14.414Z,102354.06
2023-04-16T06:32:42.059Z,102354.13
2023-04-16T06:35:08.986Z,102357.53
2023-04-16T06:37:35.539Z,102364.41
2023-04-16T06:40:02.158Z,102354.03
2023-04-16T06:42:28.643Z,102363.53
2023-04-16T06:44:55.024Z,102363.50
2023-04-16T06:47:21.419Z,102366.94
2023-04-16T06:49:47.828Z,102368.66
2023-04-16T06:52:14.209Z,102365.22
2023-04-16T06:54:40.644Z,102366.94
2023-04-16T06:57:07.064Z,102374.66
2023-04-16T06:59:33.491Z,102378.03
2023-04-16T07:02:00.039Z,102376.25
2023-04-16T07:04:26.592Z,102371.91
2023-04-16T07:06:53.022Z,102384.88
2023-04-16T07:09:19.448Z,102383.13
2023-04-16T07:11:46.978Z,102389.22
2023-04-16T07:14:13.441Z,102388.28
2023-04-16T07:16:40.651Z,102391.81
2023-04-16T07:19:07.125Z,102387.47
2023-04-16T07:21:33.672Z,102395.25
2023-04-16T07:24:00.818Z,102403.03
2023-04-16T07:26:27.256Z,102395.25
2023-04-16T07:28:53.673Z,102396.91
2023-04-16T07:31:20.257Z,102404.69
2023-04-16T07:33:46.746Z,102404.72
2023-04-16T07:36:13.851Z,102405.66
2023-04-16T07:38:40.195Z,102406.47
2023-04-16T07:41:06.566Z,102412.41
2023-04-16T07:43:32.972Z,102409.78
2023-04-16T07:45:59.441Z,102412.34
2023-04-16T07:48:26.009Z,102416.66
2023-04-16T07:50:52.591Z,102414.94
2023-04-16T07:53:19.008Z,102421.84
2023-04-16T07:55:45.575Z,102420.97
2023-04-16T07:58:12.023Z,102428.78
2023-04-16T08:00:39.462Z,102433.91
2023-04-16T08:03:06.318Z,102428.66
2023-04-16T08:05:32.866Z,102434.84
2023-04-16T08:07:59.223Z,102436.56
2023-04-16T08:10:25.693Z,102434.72
2023-04-16T08:12:52.128Z,102439.91
2023-04-16T08:15:18.642Z,102441.59
2023-04-16T08:17:45.536Z,102445.00
2023-04-16T08:20:15.031Z,102456.16
2023-04-16T08:22:43.417Z,102455.28
2023-04-16T08:25:10.269Z,102450.94
2023-04-16T08:27:36.701Z,102456.13
2023-04-16T08:30:03.708Z,102456.13
2023-04-16T08:32:30.130Z,102455.19
2023-04-16T08:34:57.569Z,102452.53
2023-04-16T08:37:25.274Z,102462.00
2023-04-16T08:39:51.706Z,102457.66
2023-04-16T08:42:31.306Z,102460.25
2023-04-16T08:45:07.577Z,102463.69
2023-04-16T08:47:36.817Z,102470.53
2023-04-16T08:50:05.065Z,102474.00
2023-04-16T08:52:32.141Z,102473.94
2023-04-16T08:55:12.704Z,102473.81
2023-04-16T08:57:43.605Z,102471.22
2023-04-16T09:00:12.027Z,102468.66
2023-04-16T09:02:39.173Z,102470.41
2023-04-16T09:05:07.425Z,102476.34
2023-04-16T09:07:35.550Z,102473.75
2023-04-16T09:10:03.335Z,102469.34
2023-04-16T09:12:31.291Z,102476.19
2023-04-16T09:15:01.065Z,102475.91
2023-04-16T09:17:27.997Z,102481.94
2023-04-16T09:19:54.932Z,102482.88
2023-04-16T09:22:21.470Z,102484.63
2023-04-16T09:24:47.840Z,102484.63
2023-04-16T09:27:14.245Z,102482.88
2023-04-16T09:29:41.594Z,102484.50
2023-04-16T09:32:09.674Z,102487.84
2023-04-16T09:35:00.674Z,102486.06
2023-04-16T09:37:31.632Z,102490.41
2023-04-16T09:39:59.189Z,102501.69
2023-04-16T09:42:27.409Z,102497.28
2023-04-16T09:44:55.734Z,102499.03
2023-04-16T09:47:38.115Z,102505.09
2023-04-16T09:50:04.926Z,102510.28
2023-04-16T09:52:31.285Z,102505.09
2023-04-16T09:54:57.647Z,102512.91
2023-04-16T09:57:25.032Z,102517.22
2023-04-16T09:59:58.777Z,102513.00
2023-04-16T10:02:29.217Z,102513.84
2023-04-16T10:04:57.396Z,102520.00
2023-04-16T10:07:29.161Z,102519.03
2023-04-16T10:09:55.993Z,102520.66
2023-04-16T10:12:22.430Z,102519.63
2023-04-16T10:14:50.270Z,102521.47
2023-04-16T10:17:17.275Z,102522.47
2023-04-16T10:19:44.328Z,102525.03
2023-04-16T10:22:11.484Z,102519.75
2023-04-16T10:24:38.726Z,102523.97
2023-04-16T10:27:05.264Z,102527.22
2023-04-16T10:29:32.720Z,102528.97
2023-04-16T10:32:00.043Z,102524.69
2023-04-16T10:34:28.859Z,102527.13
2023-04-16T10:36:56.133Z,102523.72
2023-04-16T10:39:24.166Z,102522.00
2023-04-16T10:41:51.005Z,102529.84
2023-04-16T10:44:19.065Z,102527.22
2023-04-16T10:46:52.071Z,102536.66
2023-04-16T10:49:25.906Z,102529.59
2023-04-16T10:51:57.417Z,102527.88
2023-04-16T10:54:28.827Z,102537.47
2023-04-16T10:57:04.265Z,102534.91
2023-04-16T10:59:33.322Z,102532.59
2023-04-16T11:02:02.096Z,102530.78
2023-04-16T11:04:33.926Z,102534.00
2023-04-16T11:07:19.310Z,102532.97
2023-04-16T11:09:50.418Z,102533.09
2023-04-16T11:12:18.917Z,102530.41
2023-04-16T11:14:52.941Z,102531.59
2023-04-16T11:17:21.303Z,102535.31
2023-04-16T11:19:48.266Z,102534.91
2023-04-16T11:22:17.364Z,102535.72
2023-04-16T11:24:45.581Z,102536.28
2023-04-16T11:27:15.946Z,102541.47
2023-04-16T11:29:43.537Z,102541.66
2023-04-16T11:32:20.601Z,102532.13
2023-04-16T11:34:47.152Z,102542.66
2023-04-16T11:37:13.674Z,102533.25
2023-04-16T11:39:52.947Z,102540.16
2023-04-16T11:42:22.924Z,102540.38
2023-04-16T11:44:54.316Z,102537.00
2023-04-16T11:47:21.414Z,102540.69
2023-04-16T11:49:47.996Z,102533.78
2023-04-16T11:52:25.162Z,102540.53
2023-04-16T11:54:51.738Z,102542.09
2023-04-16T11:57:24.914Z,102541.09
2023-04-16T12:00:02.450Z,102541.13
2023-04-16T12:02:44.905Z,102545.38
2023-04-16T12:05:38.859Z,102543.59
2023-04-16T12:08:07.636Z,102545.34
2023-04-16T12:10:36.562Z,102547.00
2023-04-16T12:13:17.012Z,102549.44
2023-04-16T12:15:47.808Z,102552.81
2023-04-16T12:18:16.274Z,102551.13
2023-04-16T12:20:44.452Z,102557.13
2023-04-16T12:23:22.007Z,102562.34
2023-04-16T12:25:49.932Z,102563.28
2023-04-16T12:28:30.878Z,102559.44
2023-04-16T12:30:57.574Z,102557.56
2023-04-16T12:33:24.193Z,102561.19
2023-04-16T12:35:50.948Z,102560.47
2023-04-16T12:38:17.407Z,102567.66
2023-04-16T12:40:44.035Z,102558.94
2023-04-16T12:43:10.705Z,102566.75
2023-04-16T12:45:38.283Z,102565.06
2023-04-16T12:48:04.973Z,102568.44
2023-04-16T12:50:31.597Z,102563.19
2023-04-16T12:52:58.551Z,102563.31
2023-04-16T12:55:25.840Z,102568.50
2023-04-16T12:57:55.620Z,102567.53
2023-04-16T13:00:22.485Z,102565.72
2023-04-16T13:02:49.019Z,102563.94
2023-04-16T13:05:16.615Z,102564.75
2023-04-16T13:07:43.234Z,102563.91
2023-04-16T13:10:10.443Z,102568.13
2023-04-16T13:12:36.856Z,102552.44
2023-04-16T13:15:03.550Z,102549.84
2023-04-16T13:17:29.980Z,102560.97
2023-04-16T13:19:56.440Z,102558.25
2023-04-16T13:22:22.862Z,102556.56
2023-04-16T13:24:49.783Z,102557.28
2023-04-16T13:27:16.860Z,102559.88
2023-04-16T13:29:43.250Z,102555.63
2023-04-16T13:32:09.638Z,102553.09
2023-04-16T13:34:36.064Z,102560.06
2023-04-16T13:37:02.526Z,102553.81
2023-04-16T13:39:28.976Z,102556.44
2023-04-16T13:41:55.491Z,102559.94
2023-04-16T13:44:21.919Z,102559.09
2023-04-16T13:46:48.384Z,102559.03
2023-04-16T13:49:15.023Z,102559.06
2023-04-16T13:51:47.157Z,102562.63
2023-04-16T13:54:13.546Z,102566.94
2023-04-16T13:56:40.760Z,102563.47
2023-04-16T13:59:08.063Z,102562.69
2023-04-16T14:01:34.589Z,102560.09
2023-04-16T14:04:06.295Z,102555.69
2023-04-16T14:06:34.306Z,102557.41
2023-04-16T14:09:01.182Z,102552.25
2023-04-16T14:11:27.761Z,102553.72
2023-04-16T14:13:54.503Z,102555.19
2023-04-16T14:16:20.968Z,102553.13
2023-04-16T14:18:47.479Z,102554.88
2023-04-16T14:21:13.949Z,102559.38
2023-04-16T14:23:40.365Z,102557.78
2023-04-16T14:26:06.769Z,102551.78
2023-04-16T14:28:33.284Z,102555.03
2023-04-16T14:30:59.698Z,102550.34
2023-04-16T14:33:26.307Z,102558.28
2023-04-16T14:35:52.833Z,102552.34
2023-04-16T14:38:19.349Z,102555.00
2023-04-16T14:40:45.919Z,102545.84
2023-04-16T14:43:12.365Z,102569.91
2023-04-16T14:45:38.982Z,102566.50
2023-04-16T14:48:06.727Z,102561.91
2023-04-16T14:50:38.155Z,102555.25
2023-04-16T14:53:05.665Z,102545.16
2023-04-16T14:55:32.608Z,102558.25
2023-04-16T14:57:59.606Z,102547.66
2023-04-16T15:00:26.245Z,102545.81
2023-04-16T15:02:54.325Z,102552.69
2023-04-16T15:05:21.235Z,102548.19
2023-04-16T15:07:47.663Z,102548.22
2023-04-16T15:10:14.267Z,102544.63
2023-04-16T15:12:40.945Z,102540.22
2023-04-16T15:15:08.225Z,102548.19
2023-04-16T15:17:34.877Z,102543.09
2023-04-16T15:20:01.568Z,102546.47
2023-04-16T15:22:28.126Z,102544.59
2023-04-16T15:24:54.525Z,102541.94
2023-04-16T15:27:21.100Z,102548.13
2023-04-16T15:29:49.270Z,102553.53
2023-04-16T15:32:15.752Z,102544.88
2023-04-16T15:34:42.188Z,102552.69
2023-04-16T15:37:09.634Z,102550.88
2023-04-16T15:39:36.012Z,102556.25
2023-04-16T15:42:07.192Z,102559.06
2023-04-16T15:44:33.993Z,102560.84
2023-04-16T15:47:00.752Z,102546.16
2023-04-16T15:49:27.199Z,102553.28
2023-04-16T15:51:53.801Z,102547.41
2023-04-16T15:54:20.312Z,102548.41
2023-04-16T15:56:47.092Z,102547.50
2023-04-16T15:59:13.732Z,102550.97
2023-04-16T16:01:40.448Z,102543.97
2023-04-16T16:04:07.452Z,102544.03
2023-04-16T16:06:34.495Z,102548.31
2023-04-16T16:09:00.908Z,102548.06
2023-04-16T16:11:27.653Z,102553.16
2023-04-16T16:13:54.159Z,102547.81
2023-04-16T16:16:21.712Z,102543.53
2023-04-16T16:18:48.308Z,102544.56
2023-04-16T16:21:14.790Z,102545.56
2023-04-16T16:23:41.305Z,102547.25
2023-04-16T16:26:07.688Z,102552.56
2023-04-16T16:28:37.442Z,102550.06
2023-04-16T16:31:06.046Z,102550.22
2023-04-16T16:33:32.878Z,102548.69
2023-04-16T16:35:59.288Z,102548.06
2023-04-16T16:38:25.864Z,102550.56
2023-04-16T16:40:52.268Z,102544.47
2023-04-16T16:43:18.680Z,102548.84
2023-04-16T16:45:45.167Z,102546.25
2023-04-16T16:48:11.619Z,102539.56
2023-04-16T16:50:38.065Z,102547.41
2023-04-16T16:53:04.573Z,102552.53
2023-04-16T16:55:31.089Z,102550.91
2023-04-16T16:57:58.361Z,102552.78
2023-04-16T17:00:24.918Z,102551.91
2023-04-16T17:02:52.062Z,102565.81
2023-04-16T17:05:18.747Z,102565.94
2023-04-16T17:07:45.754Z,102572.97
2023-04-16T17:10:15.838Z,102563.44
2023-04-16T17:12:42.288Z,102564.28
2023-04-16T17:15:09.232Z,102567.81
2023-04-16T17:17:35.894Z,102560.88
2023-04-16T17:20:08.067Z,102564.31
2023-04-16T17:22:34.600Z,102571.19
2023-04-16T17:25:01.347Z,102565.31
2023-04-16T17:27:29.327Z,102571.63
2023-04-16T17:30:00.007Z,102572.56
2023-04-16T17:32:27.058Z,102581.28
2023-04-16T17:34:56.940Z,102582.22
2023-04-16T17:37:23.527Z,102587.50
2023-04-16T17:39:51.033Z,102587.59
2023-04-16T17:42:17.744Z,102594.59
2023-04-16T17:44:44.428Z,102592.84
2023-04-16T17:47:10.822Z,102597.22
2023-04-16T17:49:37.248Z,102599.84
2023-04-16T17:52:03.837Z,102605.13
2023-04-16T17:54:30.434Z,102600.88
2023-04-16T17:56:57.590Z,102614.00
2023-04-16T17:59:24.008Z,102609.72
2023-04-16T18:01:50.640Z,102612.31
2023-04-16T18:04:17.516Z,102608.00
2023-04-16T18:06:44.484Z,102615.91
2023-04-16T18:09:11.957Z,102607.50
2023-04-16T18:11:38.464Z,102612.81
2023-04-16T18:14:04.908Z,102617.25
2023-04-16T18:16:31.415Z,102618.25
2023-04-16T18:18:57.917Z,102622.69
2023-04-16T18:21:24.520Z,102624.44
2023-04-16T18:23:50.926Z,102622.69
2023-04-16T18:26:20.410Z,102617.50
2023-04-16T18:28:48.624Z,102625.44
2023-04-16T18:31:15.282Z,102623.00
2023-04-16T18:33:55.743Z,102629.94
2023-04-16T18:36:23.634Z,102636.09
2023-04-16T18:38:59.942Z,102641.34
2023-04-16T18:41:27.941Z,102650.09
2023-04-16T18:43:54.433Z,102640.63
2023-04-16T18:46:20.847Z,102644.06
2023-04-16T18:48:47.235Z,102655.28
2023-04-16T18:51:15.557Z,102650.00
2023-04-16T18:53:44.269Z,102643.88
2023-04-16T18:56:11.119Z,102653.50
2023-04-16T18:58:37.898Z,102656.16
2023-04-16T19:01:04.768Z,102663.00
2023-04-16T19:03:31.863Z,102662.06
2023-04-16T19:05:58.359Z,102657.78
2023-04-16T19:08:24.747Z,102661.22
2023-04-16T19:10:51.227Z,102667.34
2023-04-16T19:13:17.587Z,102666.53
2023-04-16T19:15:43.963Z,102663.06
2023-04-16T19:18:12.794Z,102665.78
2023-04-16T19:20:41.335Z,102670.16
2023-04-16T19:23:09.118Z,102666.72
2023-04-16T19:25:36.512Z,102668.44
2023-04-16T19:28:03.793Z,102664.94
2023-04-16T19:30:30.940Z,102659.81
2023-04-16T19:32:57.826Z,102659.75
2023-04-16T19:35:24.437Z,102662.31
2023-04-16T19:37:51.153Z,102659.66
2023-04-16T19:40:17.704Z,102658.81
2023-04-16T19:42:45.262Z,102659.75
2023-04-16T19:45:11.690Z,102658.88
2023-04-16T19:47:38.319Z,102666.75
2023-04-16T19:50:05.111Z,102667.72
2023-04-16T19:52:37.316Z,102666.94
2023-04-16T19:55:04.358Z,102664.34
2023-04-16T19:57:30.785Z,102666.81
2023-04-16T19:59:57.232Z,102666.81
2023-04-16T20:02:23.967Z,102673.84
2023-04-16T20:04:50.778Z,102667.91
2023-04-16T20:07:17.452Z,102670.56
2023-04-16T20:09:43.920Z,102674.84
2023-04-16T20:12:10.482Z,102672.25
2023-04-16T20:14:36.877Z,102683.34
2023-04-16T20:17:03.493Z,102680.72
2023-04-16T20:19:31.471Z,102677.19
2023-04-16T20:21:57.885Z,102678.16
2023-04-16T20:24:26.679Z,102678.25
2023-04-16T20:26:53.086Z,102676.44
2023-04-16T20:29:19.536Z,102675.56
2023-04-16T20:31:46.190Z,102675.56
2023-04-16T20:34:12.829Z,102673.00
2023-04-16T20:36:39.270Z,102673.81
2023-04-16T20:39:07.789Z,102673.75
2023-04-16T20:41:34.251Z,102676.34
2023-04-16T20:44:05.340Z,102672.91
2023-04-16T20:46:34.218Z,102669.56
2023-04-16T20:49:03.631Z,102665.28
2023-04-16T20:51:30.116Z,102671.34
2023-04-16T20:53:56.530Z,102660.09
2023-04-16T20:56:22.958Z,102669.66
2023-04-16T20:58:49.344Z,102664.47
2023-04-16T21:01:18.176Z,102669.63
2023-04-16T21:03:44.834Z,102660.09
2023-04-16T21:06:14.398Z,102659.25
2023-04-16T21:08:40.766Z,102658.34
2023-04-16T21:11:07.206Z,102659.19
2023-04-16T21:13:33.569Z,102661.88
2023-04-16T21:15:59.945Z,102665.44
2023-04-16T21:18:26.424Z,102664.63
2023-04-16T21:20:52.929Z,102660.34
2023-04-16T21:23:19.322Z,102656.91
2023-04-16T21:25:45.674Z,102657.69
2023-04-16T21:28:12.027Z,102656.81
2023-04-16T21:30:38.745Z,102652.50
2023-04-16T21:33:05.668Z,102660.41
2023-04-16T21:35:33.060Z,102652.66
2023-04-16T21:37:59.467Z,102659.59
2023-04-16T21:40:26.348Z,102657.00
2023-04-16T21:42:52.887Z,102660.44
2023-04-16T21:45:19.315Z,102651.72
2023-04-16T21:47:45.817Z,102662.16
2023-04-16T21:50:12.600Z,102663.88
2023-04-16T21:52:40.169Z,102658.72
2023-04-16T21:55:09.141Z,102665.59
2023-04-16T21:57:35.589Z,102662.97
2023-04-16T22:00:02.403Z,102666.53
2023-04-16T22:02:29.040Z,102662.19
2023-04-16T22:04:55.597Z,102661.28
2023-04-16T22:07:22.037Z,102657.91
2023-04-16T22:09:48.393Z,102661.38
2023-04-16T22:12:14.785Z,102668.28
2023-04-16T22:14:49.148Z,102661.41
2023-04-16T22:17:27.605Z,102654.47
2023-04-16T22:19:54.549Z,102663.94
2023-04-16T22:22:21.896Z,102656.13
2023-04-16T22:24:48.681Z,102654.38
2023-04-16T22:27:15.106Z,102657.91
2023-04-16T22:29:41.682Z,102653.56
2023-04-16T22:32:08.249Z,102652.72
2023-04-16T22:34:35.100Z,102657.06
2023-04-16T22:37:03.008Z,102658.84
2023-04-16T22:39:30.906Z,102657.22
2023-04-16T22:41:57.470Z,102648.53
2023-04-16T22:44:23.906Z,102652.88
2023-04-16T22:46:50.494Z,102656.47
2023-04-16T22:49:16.990Z,102654.78
2023-04-16T22:51:43.481Z,102651.31
2023-04-16T22:54:13.643Z,102656.44
2023-04-16T22:56:41.071Z,102655.69
2023-04-16T22:59:08.112Z,102656.47
2023-04-16T23:01:34.683Z,102643.47
2023-04-16T23:04:01.246Z,102653.84
2023-04-16T23:06:27.762Z,102653.78
2023-04-16T23:08:54.151Z,102646.91
2023-04-16T23:11:20.772Z,102652.97
2023-04-16T23:13:47.232Z,102656.47
2023-04-16T23:16:13.751Z,102659.91
2023-04-16T23:18:40.230Z,102657.31
2023-04-16T23:21:06.654Z,102653.03
2023-04-16T23:23:33.364Z,102665.94
2023-04-16T23:26:00.919Z,102660.81
2023-04-16T23:28:27.416Z,102661.72
2023-04-16T23:30:53.871Z,102663.34
2023-04-16T23:33:20.560Z,102660.75
2023-04-16T23:35:47.411Z,102664.19
2023-04-16T23:38:13.858Z,102664.13
2023-04-16T23:40:40.329Z,102673.59
2023-04-16T23:43:06.768Z,102670.22
2023-04-16T23:45:33.336Z,102665.94
2023-04-16T23:48:00.117Z,102669.44
2023-04-16T23:50:26.608Z,102669.44
2023-04-16T23:52:53.019Z,102662.50
2023-04-16T23:55:19.541Z,102665.13
2023-04-16T23:57:46.281Z,102669.50
